createdAt,value
2019-06-26T00:14:08.201Z,15.38
2019-06-26T00:29:12.263Z,15.63
2019-06-26T00:44:16.285Z,14.87
2019-06-26T00:59:20.230Z,17.05
2019-06-26T01:14:24.200Z,16.70
2019-06-26T01:29:28.120Z,16.42
2019-06-26T01:44:32.060Z,18.12
2019-06-26T01:59:35.970Z,19.27
2019-06-26T02:14:40.960Z,17.67
2019-06-26T02:29:44.879Z,19.55
2019-06-26T02:44:53.879Z,21.55
2019-06-26T02:59:54.370Z,20.48
2019-06-26T03:15:08.376Z,19.10
2019-06-26T03:30:05.443Z,22.75
2019-06-26T03:45:24.598Z,25.35
2019-06-26T04:00:17.827Z,24.75
2019-06-26T04:15:21.955Z,21.48
2019-06-26T04:30:27.179Z,24.10
2019-06-26T04:45:36.743Z,25.97
2019-06-26T05:00:40.639Z,24.82
2019-06-26T05:15:44.641Z,24.32
2019-06-26T05:30:48.505Z,21.80
2019-06-26T05:45:52.488Z,19.02
2019-06-26T06:00:57.065Z,18.07
2019-06-26T06:16:00.983Z,20.35
2019-06-26T06:31:05.039Z,21.93
2019-06-26T06:46:11.597Z,15.55
2019-06-26T07:01:19.847Z,14.45
2019-06-26T07:16:21.109Z,16.48
2019-06-26T07:31:26.528Z,18.73
2019-06-26T07:46:33.505Z,15.63
2019-06-26T08:01:37.433Z,13.70
2019-06-26T08:16:41.337Z,13.98
2019-06-26T08:31:45.246Z,13.08
2019-06-26T08:46:49.191Z,13.93
2019-06-26T09:01:53.627Z,15.75
2019-06-26T09:16:57.562Z,11.53
2019-06-26T09:32:01.805Z,10.75
2019-06-26T09:47:05.832Z,12.25
2019-06-26T10:02:09.842Z,9.83
2019-06-26T10:17:13.779Z,8.80
2019-06-26T10:32:17.715Z,9.23
2019-06-26T10:47:21.729Z,9.75
2019-06-26T11:02:25.646Z,10.00
2019-06-26T11:17:29.616Z,10.23
2019-06-26T11:32:33.524Z,11.10
2019-06-26T11:47:37.871Z,25.03
2019-06-26T12:02:41.755Z,9.77
2019-06-26T12:17:45.697Z,10.13
2019-06-26T12:33:02.156Z,8.20
2019-06-26T12:47:56.771Z,8.67
2019-06-26T13:03:00.699Z,9.60
2019-06-26T13:18:04.583Z,17.40
2019-06-26T13:33:08.663Z,8.87
2019-06-26T13:48:12.642Z,7.47
2019-06-26T14:03:16.610Z,9.63
2019-06-26T14:18:20.489Z,9.27
2019-06-26T14:33:24.493Z,12.30
2019-06-26T14:48:30.510Z,11.87
2019-06-26T15:03:36.007Z,11.47
2019-06-26T15:18:40.168Z,14.90
2019-06-26T15:33:45.678Z,13.50
2019-06-26T15:48:50.469Z,11.77
2019-06-26T16:03:54.405Z,10.70
2019-06-26T16:19:03.002Z,14.17
2019-06-26T16:34:07.208Z,15.80
2019-06-26T16:49:11.673Z,15.03
2019-06-26T17:04:21.839Z,11.40
2019-06-26T17:19:25.783Z,12.30
2019-06-26T17:34:29.789Z,12.40
2019-06-26T17:49:33.780Z,10.63
2019-06-26T18:04:37.795Z,11.17
2019-06-26T18:19:41.825Z,12.43
2019-06-26T18:34:46.894Z,15.03
2019-06-26T18:49:51.147Z,12.83
2019-06-26T19:04:55.144Z,13.63
2019-06-26T19:19:59.241Z,12.40
2019-06-26T19:35:08.173Z,13.37
2019-06-26T19:50:09.062Z,13.45
2019-06-26T20:05:13.111Z,18.55
2019-06-26T20:20:17.065Z,13.35
2019-06-26T20:35:21.981Z,14.57
2019-06-26T20:50:26.020Z,14.65
2019-06-26T21:05:29.957Z,16.65
2019-06-26T21:20:33.938Z,14.68
2019-06-26T21:35:38.264Z,16.82
2019-06-26T21:50:45.379Z,14.25
2019-06-26T22:05:49.641Z,13.32
2019-06-26T22:20:53.827Z,17.62
2019-06-26T22:35:58.025Z,16.75
2019-06-26T22:51:01.990Z,14.90
2019-06-26T23:06:05.966Z,17.15
2019-06-26T23:21:09.889Z,17.65
2019-06-26T23:36:13.945Z,15.53
2019-06-26T23:51:17.878Z,18.87
